Terminal Aerodrome Forecast
Issued by NWS

Home | Current Version | Previous Version | Text Only | Print | Product List | Glossary On
Versions: 1 2 3 4 5 6 7 8 9 10 11 12 13 14 15 16 17 18 19
000
FTUS43 KGRR 200500
TAFJXN
TAF
KJXN 200540Z 2006/2106 23003KT 6SM BR BKN090
     FM200700 23003KT 2SM BR OVC050
     FM201000 24003KT 1SM BR OVC005
     FM201400 27005KT 4SM BR BKN050
     FM201700 28008KT P6SM VCSH BKN050=

USA.gov is the U.S. government's official web portal to all federal, state and local government web resources and services.